createdAt,value
2023-04-24T00:00:20.014Z,14.68
2023-04-24T00:01:19.995Z,14.69
2023-04-24T00:02:20.157Z,14.62
2023-04-24T00:03:20.218Z,14.69
2023-04-24T00:04:20.242Z,14.69
2023-04-24T00:05:19.998Z,14.65
2023-04-24T00:06:20.002Z,14.65
2023-04-24T00:07:19.991Z,14.58
2023-04-24T00:08:19.996Z,14.42
2023-04-24T00:09:19.994Z,14.54
2023-04-24T00:10:19.992Z,14.54
2023-04-24T00:11:19.992Z,14.58
2023-04-24T00:12:19.991Z,14.55
2023-04-24T00:13:19.996Z,14.52
2023-04-24T00:14:19.997Z,14.39
2023-04-24T00:15:19.984Z,14.43
2023-04-24T00:16:20.077Z,14.25
2023-04-24T00:17:19.990Z,14.22
2023-04-24T00:18:19.981Z,14.37
2023-04-24T00:19:20.055Z,14.36
2023-04-24T00:20:19.983Z,14.40
2023-04-24T00:21:19.978Z,14.37
2023-04-24T00:22:19.988Z,14.45
2023-04-24T00:23:19.976Z,14.40
2023-04-24T00:24:19.986Z,14.43
2023-04-24T00:25:19.973Z,14.39
2023-04-24T00:26:19.976Z,14.43
2023-04-24T00:27:19.978Z,14.42
2023-04-24T00:28:19.977Z,14.46
2023-04-24T00:29:19.976Z,14.37
2023-04-24T00:30:19.982Z,14.37
2023-04-24T00:31:20.020Z,14.45
2023-04-24T00:32:20.072Z,14.45
2023-04-24T00:33:19.967Z,14.29
2023-04-24T00:34:19.970Z,14.43
2023-04-24T00:35:19.990Z,14.45
2023-04-24T00:36:19.977Z,14.42
2023-04-24T00:37:19.976Z,14.43
2023-04-24T00:38:19.966Z,14.46
2023-04-24T00:39:19.955Z,14.45
2023-04-24T00:40:19.967Z,14.43
2023-04-24T00:41:20.006Z,14.24
2023-04-24T00:42:19.960Z,14.25
2023-04-24T00:43:19.962Z,14.29
2023-04-24T00:44:19.958Z,14.35
2023-04-24T00:45:19.970Z,14.22
2023-04-24T00:46:19.998Z,14.22
2023-04-24T00:47:19.969Z,14.15
2023-04-24T00:48:20.015Z,14.28
2023-04-24T00:49:19.959Z,14.28
2023-04-24T00:50:19.954Z,14.24
2023-04-24T00:51:19.970Z,14.22
2023-04-24T00:52:19.949Z,14.21
2023-04-24T00:53:19.947Z,14.29
2023-04-24T00:54:19.950Z,14.28
2023-04-24T00:55:19.944Z,14.25
2023-04-24T00:56:19.955Z,14.14
2023-04-24T00:57:19.946Z,14.12
2023-04-24T00:58:19.948Z,14.20
2023-04-24T00:59:19.937Z,14.21
2023-04-24T01:00:19.945Z,14.14
2023-04-24T01:01:19.970Z,14.14
2023-04-24T01:02:20.016Z,14.15
2023-04-24T01:03:20.167Z,14.18
2023-04-24T01:04:20.021Z,14.09
2023-04-24T01:05:19.948Z,14.09
2023-04-24T01:06:19.940Z,13.97
2023-04-24T01:07:19.970Z,13.95
2023-04-24T01:08:19.934Z,14.06
2023-04-24T01:09:19.933Z,13.95
2023-04-24T01:10:19.931Z,13.95
2023-04-24T01:11:19.932Z,13.99
2023-04-24T01:12:19.932Z,13.95
2023-04-24T01:13:19.927Z,14.02
2023-04-24T01:14:19.929Z,13.92
2023-04-24T01:15:19.925Z,13.91
2023-04-24T01:16:19.977Z,13.89
2023-04-24T01:17:19.947Z,13.92
2023-04-24T01:18:19.925Z,13.92
2023-04-24T01:19:19.930Z,13.97
2023-04-24T01:20:19.925Z,13.87
2023-04-24T01:21:19.920Z,13.97
2023-04-24T01:22:19.927Z,13.97
2023-04-24T01:23:19.932Z,13.99
2023-04-24T01:24:19.923Z,13.96
2023-04-24T01:25:19.922Z,14.02
2023-04-24T01:26:19.930Z,14.02
2023-04-24T01:27:19.916Z,14.06
2023-04-24T01:28:19.918Z,13.95
2023-04-24T01:29:20.236Z,14.07
2023-04-24T01:30:19.919Z,13.97
2023-04-24T01:31:19.995Z,13.95
2023-04-24T01:32:19.990Z,14.06
2023-04-24T01:33:19.911Z,14.14
2023-04-24T01:34:19.911Z,14.14
2023-04-24T01:35:19.919Z,14.18
2023-04-24T01:36:19.906Z,14.27
2023-04-24T01:37:19.916Z,14.20
2023-04-24T01:38:19.904Z,14.18
2023-04-24T01:39:19.943Z,14.14
2023-04-24T01:40:19.916Z,14.27
2023-04-24T01:41:19.899Z,14.22
2023-04-24T01:42:19.904Z,14.20
2023-04-24T01:43:19.915Z,14.21
2023-04-24T01:44:19.903Z,14.20
2023-04-24T01:45:19.912Z,14.15
2023-04-24T01:46:19.941Z,14.25
2023-04-24T01:47:19.889Z,14.20
2023-04-24T01:48:19.895Z,14.32
2023-04-24T01:49:19.893Z,14.33
2023-04-24T01:50:19.896Z,14.21
2023-04-24T01:51:19.887Z,14.17
2023-04-24T01:52:19.888Z,14.15
2023-04-24T01:53:19.889Z,14.27
2023-04-24T01:54:19.884Z,14.27
2023-04-24T01:55:19.913Z,14.43
2023-04-24T01:56:19.881Z,14.40
2023-04-24T01:57:19.882Z,14.43
2023-04-24T01:58:19.877Z,14.43
2023-04-24T01:59:19.887Z,14.45
2023-04-24T02:00:19.877Z,14.45
2023-04-24T02:01:20.000Z,14.32
2023-04-24T02:02:19.968Z,14.27
2023-04-24T02:03:20.087Z,14.24
2023-04-24T02:04:20.034Z,14.22
2023-04-24T02:05:19.893Z,14.12
2023-04-24T02:06:19.866Z,14.07
2023-04-24T02:07:19.869Z,14.20
2023-04-24T02:08:19.869Z,14.21
2023-04-24T02:09:19.871Z,14.12
2023-04-24T02:10:19.868Z,14.10
2023-04-24T02:11:19.892Z,14.17
2023-04-24T02:12:19.867Z,14.14
2023-04-24T02:13:19.870Z,14.14
2023-04-24T02:14:19.861Z,14.27
2023-04-24T02:15:19.863Z,14.27
2023-04-24T02:16:19.916Z,14.20
2023-04-24T02:17:19.942Z,14.14
2023-04-24T02:18:19.861Z,14.18
2023-04-24T02:19:19.858Z,14.21
2023-04-24T02:20:19.860Z,14.10
2023-04-24T02:21:19.858Z,14.09
2023-04-24T02:22:19.853Z,14.17
2023-04-24T02:23:19.857Z,14.10
2023-04-24T02:24:19.848Z,14.17
2023-04-24T02:25:19.848Z,14.20
2023-04-24T02:26:19.844Z,14.10
2023-04-24T02:27:19.867Z,14.17
2023-04-24T02:28:19.847Z,14.36
2023-04-24T02:29:19.847Z,14.39
2023-04-24T02:30:19.848Z,14.45
2023-04-24T02:31:19.900Z,14.46
2023-04-24T02:32:20.152Z,14.36
2023-04-24T02:33:19.838Z,14.42
2023-04-24T02:34:19.831Z,14.27
2023-04-24T02:35:19.875Z,14.25
2023-04-24T02:36:19.837Z,14.20
2023-04-24T02:37:19.848Z,14.29
2023-04-24T02:38:19.837Z,14.28
2023-04-24T02:39:19.839Z,14.27
2023-04-24T02:40:19.833Z,14.40
2023-04-24T02:41:19.826Z,14.42
2023-04-24T02:42:19.829Z,14.55
2023-04-24T02:43:19.855Z,14.57
2023-04-24T02:44:19.827Z,14.55
2023-04-24T02:45:19.830Z,14.55
2023-04-24T02:46:19.842Z,14.60
2023-04-24T02:47:19.871Z,14.64
2023-04-24T02:48:19.817Z,14.62
2023-04-24T02:49:19.823Z,14.61
2023-04-24T02:50:19.825Z,14.65
2023-04-24T02:51:19.820Z,14.73
2023-04-24T02:52:19.813Z,14.75
2023-04-24T02:53:19.824Z,14.69
2023-04-24T02:54:19.813Z,14.72
2023-04-24T02:55:19.817Z,14.72
2023-04-24T02:56:19.814Z,14.81
2023-04-24T02:57:19.809Z,14.77
2023-04-24T02:58:19.813Z,14.70
2023-04-24T02:59:19.831Z,14.65
2023-04-24T03:00:19.811Z,14.77
2023-04-24T03:01:19.885Z,14.88
2023-04-24T03:02:19.880Z,14.91
2023-04-24T03:03:19.871Z,14.92
2023-04-24T03:04:19.948Z,14.88
2023-04-24T03:05:19.806Z,14.88
2023-04-24T03:06:19.797Z,14.94
2023-04-24T03:07:19.806Z,15.06
2023-04-24T03:08:19.796Z,15.01
2023-04-24T03:09:19.804Z,14.98
2023-04-24T03:10:19.792Z,15.09
2023-04-24T03:11:19.793Z,14.98
2023-04-24T03:12:19.790Z,15.06
2023-04-24T03:13:19.791Z,15.01
2023-04-24T03:14:19.800Z,15.01
2023-04-24T03:15:19.891Z,15.01
2023-04-24T03:16:19.858Z,15.07
2023-04-24T03:17:19.793Z,15.06
2023-04-24T03:18:19.803Z,15.07
2023-04-24T03:19:19.786Z,15.10
2023-04-24T03:20:19.788Z,15.17
2023-04-24T03:21:19.788Z,15.19
2023-04-24T03:22:19.782Z,15.21
2023-04-24T03:23:19.794Z,15.07
2023-04-24T03:24:19.782Z,15.17
2023-04-24T03:25:19.786Z,15.16
2023-04-24T03:26:19.778Z,15.16
2023-04-24T03:27:19.785Z,15.23
2023-04-24T03:28:19.776Z,15.29
2023-04-24T03:29:19.782Z,15.36
2023-04-24T03:30:19.778Z,15.39
2023-04-24T03:31:19.825Z,15.39
2023-04-24T03:32:19.792Z,15.49
2023-04-24T03:33:19.773Z,15.50
2023-04-24T03:34:19.774Z,15.51
2023-04-24T03:35:19.772Z,15.65
2023-04-24T03:36:19.775Z,15.54
2023-04-24T03:37:19.776Z,15.62
2023-04-24T03:38:19.773Z,15.68
2023-04-24T03:39:19.777Z,15.67
2023-04-24T03:40:19.772Z,15.64
2023-04-24T03:41:19.765Z,15.67
2023-04-24T03:42:19.767Z,15.71
2023-04-24T03:43:19.762Z,15.64
2023-04-24T03:44:19.764Z,15.78
2023-04-24T03:45:19.764Z,15.71
2023-04-24T03:46:19.804Z,15.74
2023-04-24T03:47:19.785Z,15.84
2023-04-24T03:48:19.761Z,15.83
2023-04-24T03:49:19.773Z,15.90
2023-04-24T03:50:19.760Z,15.84
2023-04-24T03:51:19.765Z,15.90
2023-04-24T03:52:19.753Z,15.93
2023-04-24T03:53:19.754Z,15.89
2023-04-24T03:54:19.788Z,15.92
2023-04-24T03:55:19.757Z,15.93
2023-04-24T03:56:19.759Z,15.90
2023-04-24T03:57:19.756Z,15.87
2023-04-24T03:58:19.748Z,16.01
2023-04-24T03:59:19.758Z,15.94
2023-04-24T04:00:19.746Z,15.84
2023-04-24T04:01:19.751Z,16.01
2023-04-24T04:02:20.030Z,15.90
2023-04-24T04:03:20.019Z,15.92
2023-04-24T04:04:20.002Z,15.97
2023-04-24T04:05:19.805Z,15.90
2023-04-24T04:06:19.740Z,15.87
2023-04-24T04:07:19.750Z,15.93
2023-04-24T04:08:19.742Z,16.00
2023-04-24T04:09:19.744Z,15.90
2023-04-24T04:10:19.749Z,15.94
2023-04-24T04:11:19.741Z,15.94
2023-04-24T04:12:19.748Z,15.92
2023-04-24T04:13:19.741Z,16.01
2023-04-24T04:14:19.735Z,15.93
2023-04-24T04:15:19.753Z,15.94
2023-04-24T04:16:19.795Z,16.00
2023-04-24T04:17:19.735Z,15.87
2023-04-24T04:18:19.776Z,16.01
2023-04-24T04:19:19.757Z,16.04
2023-04-24T04:20:19.733Z,15.94
2023-04-24T04:21:19.737Z,16.00
2023-04-24T04:22:19.731Z,15.97
2023-04-24T04:23:19.731Z,16.00
2023-04-24T04:24:19.730Z,15.97
2023-04-24T04:25:19.735Z,16.04
2023-04-24T04:26:19.722Z,16.05
2023-04-24T04:27:19.727Z,16.05
2023-04-24T04:28:19.723Z,16.00
2023-04-24T04:29:19.727Z,15.96
2023-04-24T04:30:19.736Z,16.02
2023-04-24T04:31:19.737Z,15.97
2023-04-24T04:32:19.722Z,15.90
2023-04-24T04:33:19.721Z,15.89
2023-04-24T04:34:19.722Z,16.05
2023-04-24T04:35:19.754Z,16.04
2023-04-24T04:36:19.720Z,16.01
2023-04-24T04:37:19.720Z,15.96
2023-04-24T04:38:19.722Z,16.05
2023-04-24T04:39:19.719Z,16.02
2023-04-24T04:40:59.499Z,16.04
2023-04-24T04:41:59.536Z,15.97
2023-04-24T04:42:59.501Z,15.94
2023-04-24T04:43:59.500Z,16.05
2023-04-24T04:44:59.488Z,16.09
2023-04-24T04:45:59.535Z,16.15
2023-04-24T04:46:59.518Z,16.12
2023-04-24T04:47:59.502Z,16.20
2023-04-24T04:48:59.490Z,16.08
2023-04-24T04:49:59.477Z,16.17
2023-04-24T04:50:59.513Z,16.15
2023-04-24T04:51:59.490Z,16.28
2023-04-24T04:52:59.480Z,16.24
2023-04-24T04:53:59.487Z,16.14
2023-04-24T04:54:59.491Z,16.12
2023-04-24T04:55:59.497Z,16.24
2023-04-24T04:56:59.482Z,16.20
2023-04-24T04:57:59.484Z,16.28
2023-04-24T04:58:59.505Z,16.17
2023-04-24T04:59:59.511Z,16.45
2023-04-24T05:00:59.493Z,16.43
2023-04-24T05:01:59.481Z,16.30
2023-04-24T05:03:06.134Z,16.38
2023-04-24T05:03:59.777Z,16.39
2023-04-24T05:04:59.669Z,16.34
2023-04-24T05:05:59.481Z,16.39
2023-04-24T05:06:59.492Z,16.28
2023-04-24T05:07:59.474Z,16.35
2023-04-24T05:08:59.477Z,16.41
2023-04-24T05:09:59.478Z,16.20
2023-04-24T05:10:59.475Z,16.23
2023-04-24T05:11:59.467Z,16.31
2023-04-24T05:12:59.474Z,16.38
2023-04-24T05:13:59.474Z,16.52
2023-04-24T05:14:59.468Z,16.58
2023-04-24T05:15:59.473Z,16.61
2023-04-24T05:16:59.490Z,16.60
2023-04-24T05:17:59.507Z,16.73
2023-04-24T05:18:59.472Z,16.61
2023-04-24T05:19:59.464Z,16.61
2023-04-24T05:20:59.465Z,16.58
2023-04-24T05:21:59.471Z,16.61
2023-04-24T05:22:59.486Z,16.61
2023-04-24T05:23:59.463Z,16.56
2023-04-24T05:24:59.461Z,16.60
2023-04-24T05:25:59.460Z,16.66
2023-04-24T05:26:59.458Z,16.60
2023-04-24T05:27:59.472Z,16.61
2023-04-24T05:28:59.457Z,16.63
2023-04-24T05:29:59.454Z,16.58
2023-04-24T05:30:59.502Z,16.58
2023-04-24T05:31:59.452Z,16.70
2023-04-24T05:33:01.243Z,16.68
2023-04-24T05:33:59.477Z,16.63
2023-04-24T05:34:59.468Z,16.60
2023-04-24T05:35:59.473Z,16.61
2023-04-24T05:36:59.468Z,16.71
2023-04-24T05:37:59.454Z,16.63
2023-04-24T05:38:59.485Z,16.64
2023-04-24T05:39:59.452Z,16.81
2023-04-24T05:40:59.455Z,16.61
2023-04-24T05:41:59.443Z,16.70
2023-04-24T05:42:59.474Z,16.73
2023-04-24T05:43:59.454Z,16.89
2023-04-24T05:44:59.469Z,16.88
2023-04-24T05:45:59.487Z,17.03
2023-04-24T05:46:59.455Z,17.01
2023-04-24T05:47:59.462Z,17.03
2023-04-24T05:48:59.447Z,16.98
2023-04-24T05:49:59.443Z,17.04
2023-04-24T05:50:59.450Z,17.06
2023-04-24T05:51:59.449Z,17.06
2023-04-24T05:52:59.457Z,16.98
2023-04-24T05:53:59.443Z,17.00
2023-04-24T05:54:59.462Z,17.03
2023-04-24T05:55:59.444Z,16.86
2023-04-24T05:56:59.444Z,17.00
2023-04-24T05:57:59.450Z,17.14
2023-04-24T05:58:59.448Z,17.16
2023-04-24T05:59:59.445Z,17.18
2023-04-24T06:00:59.457Z,17.21
2023-04-24T06:01:59.508Z,17.38
2023-04-24T06:02:59.790Z,17.37
2023-04-24T06:03:59.603Z,17.46
2023-04-24T06:04:59.507Z,17.52
2023-04-24T06:05:59.448Z,17.41
2023-04-24T06:06:59.439Z,17.56
2023-04-24T06:07:59.437Z,17.46
2023-04-24T06:08:59.441Z,17.43
2023-04-24T06:09:59.430Z,17.43
2023-04-24T06:10:59.466Z,17.54
2023-04-24T06:11:59.437Z,17.74
2023-04-24T06:12:59.436Z,17.34
2023-04-24T06:13:59.431Z,17.44
2023-04-24T06:14:59.436Z,17.43
2023-04-24T06:15:59.480Z,17.40
2023-04-24T06:16:59.604Z,17.41
2023-04-24T06:17:59.469Z,17.48
2023-04-24T06:18:59.433Z,17.49
2023-04-24T06:19:59.433Z,17.54
2023-04-24T06:20:59.430Z,17.46
2023-04-24T06:21:59.427Z,17.63
2023-04-24T06:22:59.424Z,17.62
2023-04-24T06:23:59.432Z,17.52
2023-04-24T06:24:59.432Z,17.52
2023-04-24T06:25:59.427Z,17.74
2023-04-24T06:26:59.456Z,17.82
2023-04-24T06:27:59.427Z,17.82
2023-04-24T06:28:59.430Z,17.84
2023-04-24T06:29:59.421Z,17.93
2023-04-24T06:30:59.424Z,18.00
2023-04-24T06:31:59.479Z,18.02
2023-04-24T06:33:09.255Z,18.15
2023-04-24T06:33:59.418Z,18.21
2023-04-24T06:34:59.691Z,18.12
2023-04-24T06:35:59.419Z,17.99
2023-04-24T06:36:59.424Z,17.84
2023-04-24T06:37:59.418Z,17.87
2023-04-24T06:38:59.428Z,17.78
2023-04-24T06:39:59.419Z,17.79
2023-04-24T06:40:59.419Z,17.84
2023-04-24T06:41:59.451Z,17.84
2023-04-24T06:42:59.449Z,17.74
2023-04-24T06:43:59.420Z,17.89
2023-04-24T06:44:59.420Z,17.70
2023-04-24T06:45:59.427Z,17.74
2023-04-24T06:46:59.421Z,17.75
2023-04-24T06:47:59.438Z,17.99
2023-04-24T06:48:59.423Z,18.08
2023-04-24T06:49:59.418Z,18.12
2023-04-24T06:50:59.425Z,18.12
2023-04-24T06:51:59.412Z,18.21
2023-04-24T06:52:59.412Z,18.30
2023-04-24T06:53:59.415Z,18.33
2023-04-24T06:54:59.416Z,18.50
2023-04-24T06:55:59.418Z,18.58
2023-04-24T06:56:59.422Z,18.72
2023-04-24T06:57:59.413Z,18.92
2023-04-24T06:58:59.439Z,18.98
2023-04-24T06:59:59.421Z,19.00
2023-04-24T07:00:59.450Z,19.08
2023-04-24T07:01:59.464Z,19.40
2023-04-24T07:02:59.620Z,19.68
2023-04-24T07:03:59.484Z,20.01
2023-04-24T07:04:59.419Z,20.31
2023-04-24T07:05:59.415Z,20.85
2023-04-24T07:06:59.412Z,20.92
2023-04-24T07:07:59.412Z,20.85
2023-04-24T07:08:59.681Z,20.82
2023-04-24T07:09:59.424Z,21.10
2023-04-24T07:10:59.428Z,21.16
2023-04-24T07:11:59.434Z,21.24
2023-04-24T07:12:59.415Z,21.50
2023-04-24T07:13:59.443Z,21.64
2023-04-24T07:14:59.501Z,21.86
2023-04-24T07:15:59.446Z,21.65
2023-04-24T07:16:59.427Z,21.90
2023-04-24T07:17:59.492Z,21.83
2023-04-24T07:18:59.414Z,22.07
2023-04-24T07:19:59.413Z,21.94
2023-04-24T07:20:59.410Z,22.09
2023-04-24T07:21:59.422Z,22.28
2023-04-24T07:22:59.418Z,22.57
2023-04-24T07:23:59.410Z,22.55
2023-04-24T07:24:59.414Z,22.57
2023-04-24T07:25:59.438Z,22.55
2023-04-24T07:26:59.417Z,22.54
2023-04-24T07:27:59.423Z,22.54
2023-04-24T07:28:59.437Z,22.76
2023-04-24T07:29:59.420Z,23.07
2023-04-24T07:30:59.438Z,23.19
2023-04-24T07:32:01.007Z,23.13
2023-04-24T07:32:59.449Z,23.07
2023-04-24T07:33:59.414Z,23.28
2023-04-24T07:34:59.436Z,23.53
2023-04-24T07:35:59.423Z,23.58
2023-04-24T07:36:59.425Z,23.69
2023-04-24T07:37:59.418Z,24.30
2023-04-24T07:38:59.430Z,24.84
2023-04-24T07:39:59.423Z,25.25
2023-04-24T07:40:59.430Z,25.65
2023-04-24T07:41:59.429Z,25.45
2023-04-24T07:42:59.425Z,25.08
2023-04-24T07:43:59.451Z,24.76
2023-04-24T07:44:59.446Z,24.42
2023-04-24T07:45:59.480Z,23.88
2023-04-24T07:46:59.478Z,23.19
2023-04-24T07:47:59.457Z,22.64
2023-04-24T07:49:12.506Z,22.55
2023-04-24T07:49:59.436Z,22.28
2023-04-24T07:50:59.449Z,22.22
2023-04-24T07:51:59.488Z,22.27
2023-04-24T07:52:59.442Z,22.12
2023-04-24T07:53:59.448Z,22.21
2023-04-24T07:54:59.507Z,21.99
2023-04-24T07:55:59.447Z,22.21
2023-04-24T07:56:59.451Z,22.09
2023-04-24T07:57:59.447Z,22.21
2023-04-24T07:58:59.478Z,22.27
2023-04-24T07:59:59.458Z,23.22
2023-04-24T08:00:59.461Z,24.64
2023-04-24T08:01:59.460Z,25.35
2023-04-24T08:02:59.606Z,26.29
2023-04-24T08:03:59.632Z,26.72
2023-04-24T08:05:00.525Z,27.51
2023-04-24T08:05:59.535Z,27.99
2023-04-24T08:06:59.476Z,27.47
2023-04-24T08:07:59.475Z,27.62
2023-04-24T08:08:59.555Z,27.69
2023-04-24T08:09:59.480Z,27.78
2023-04-24T08:10:59.640Z,27.66
2023-04-24T08:11:59.490Z,27.78
2023-04-24T08:12:59.482Z,27.72
2023-04-24T08:13:59.486Z,27.60
2023-04-24T08:14:59.496Z,27.50
2023-04-24T08:15:59.508Z,27.29
2023-04-24T08:16:59.497Z,26.97
2023-04-24T08:17:59.543Z,26.63
2023-04-24T08:18:59.546Z,26.47
2023-04-24T08:19:59.515Z,26.10
2023-04-24T08:20:59.504Z,26.06
2023-04-24T08:21:59.509Z,25.55
2023-04-24T08:22:59.508Z,25.39
2023-04-24T08:23:59.517Z,25.24
2023-04-24T08:24:59.516Z,24.96
2023-04-24T08:25:59.514Z,24.64
2023-04-24T08:26:59.534Z,24.55
2023-04-24T08:27:59.532Z,24.67
2023-04-24T08:28:59.538Z,25.08
2023-04-24T08:29:59.544Z,25.06
2023-04-24T08:30:59.553Z,24.98
2023-04-24T08:31:59.655Z,25.21
2023-04-24T08:32:59.579Z,25.33
2023-04-24T08:33:59.540Z,25.25
2023-04-24T08:34:59.601Z,25.20
2023-04-24T08:35:59.553Z,25.21
2023-04-24T08:36:59.559Z,25.09
2023-04-24T08:37:59.551Z,24.96
2023-04-24T08:38:59.565Z,24.77
2023-04-24T08:39:59.570Z,24.99
2023-04-24T08:40:59.561Z,25.25
2023-04-24T08:41:59.564Z,25.39
2023-04-24T08:42:59.583Z,25.64
2023-04-24T08:43:59.580Z,25.65
2023-04-24T08:44:59.581Z,25.91
2023-04-24T08:45:59.620Z,26.09
2023-04-24T08:46:59.583Z,26.23
2023-04-24T08:47:59.655Z,26.29
2023-04-24T08:48:59.591Z,26.47
2023-04-24T08:49:59.598Z,26.76
2023-04-24T08:50:59.675Z,27.09
2023-04-24T08:51:59.601Z,27.37
2023-04-24T08:52:59.607Z,27.04
2023-04-24T08:53:59.612Z,26.62
2023-04-24T08:54:59.625Z,26.39
2023-04-24T08:55:59.623Z,25.94
2023-04-24T08:56:59.624Z,25.58
2023-04-24T08:57:59.630Z,25.38
2023-04-24T08:58:59.631Z,25.58
2023-04-24T08:59:59.654Z,25.47
2023-04-24T09:00:59.676Z,25.98
2023-04-24T09:01:59.655Z,26.37
2023-04-24T09:02:59.791Z,26.62
2023-04-24T09:03:59.853Z,26.40
2023-04-24T09:04:59.657Z,26.07
2023-04-24T09:05:59.665Z,25.99
2023-04-24T09:06:59.805Z,25.69
2023-04-24T09:07:59.676Z,25.72
2023-04-24T09:08:59.677Z,25.40
2023-04-24T09:09:59.696Z,25.21
2023-04-24T09:10:59.692Z,25.25
2023-04-24T09:11:59.703Z,25.30
2023-04-24T09:12:59.705Z,24.87
2023-04-24T09:13:59.717Z,24.83
2023-04-24T09:14:59.715Z,24.46
2023-04-24T09:15:59.714Z,24.06
2023-04-24T09:16:59.762Z,24.12
2023-04-24T09:17:59.817Z,24.25
2023-04-24T09:18:59.728Z,24.47
2023-04-24T09:19:59.740Z,24.43
2023-04-24T09:20:59.739Z,24.40
2023-04-24T09:21:59.749Z,24.32
2023-04-24T09:22:59.812Z,23.80
2023-04-24T09:23:59.763Z,23.70
2023-04-24T09:24:59.761Z,23.68
2023-04-24T09:25:59.774Z,23.70
2023-04-24T09:26:59.816Z,23.69
2023-04-24T09:27:59.782Z,23.57
2023-04-24T09:28:59.794Z,23.58
2023-04-24T09:29:59.792Z,23.53
2023-04-24T09:30:59.789Z,23.28
2023-04-24T09:31:59.835Z,23.13
2023-04-24T09:32:59.852Z,23.00
2023-04-24T09:34:02.027Z,22.79
2023-04-24T09:34:59.813Z,22.90
2023-04-24T09:35:59.821Z,22.77
2023-04-24T09:36:59.823Z,22.40
2023-04-24T09:37:59.834Z,22.45
2023-04-24T09:38:59.851Z,22.60
2023-04-24T09:39:59.845Z,22.75
2023-04-24T09:40:59.841Z,22.51
2023-04-24T09:41:59.848Z,22.52
2023-04-24T09:42:59.845Z,22.58
2023-04-24T09:43:59.908Z,22.60
2023-04-24T09:45:11.843Z,22.60
2023-04-24T09:45:59.885Z,22.39
2023-04-24T09:46:59.861Z,22.58
2023-04-24T09:47:59.912Z,22.18
2023-04-24T09:48:59.862Z,22.28
2023-04-24T09:49:59.870Z,22.24
2023-04-24T09:50:59.871Z,22.28
2023-04-24T09:51:59.886Z,22.22
2023-04-24T09:52:59.882Z,22.18
2023-04-24T09:53:59.888Z,21.90
2023-04-24T09:54:59.917Z,21.98
2023-04-24T09:55:59.895Z,21.62
2023-04-24T09:56:59.885Z,21.61
2023-04-24T09:57:59.897Z,21.49
2023-04-24T09:58:59.896Z,21.40
2023-04-24T09:59:59.901Z,21.49
2023-04-24T10:00:59.963Z,21.56
2023-04-24T10:02:00.203Z,21.38
2023-04-24T10:03:00.039Z,21.27
2023-04-24T10:03:59.917Z,21.28
2023-04-24T10:05:00.059Z,21.29
2023-04-24T10:05:59.941Z,21.29
2023-04-24T10:06:59.915Z,21.27
2023-04-24T10:07:59.920Z,21.25
2023-04-24T10:08:59.919Z,21.29
2023-04-24T10:09:59.940Z,21.29
2023-04-24T10:10:59.943Z,21.29
2023-04-24T10:11:59.929Z,21.40
2023-04-24T10:12:59.940Z,21.52
2023-04-24T10:13:59.932Z,21.71
2023-04-24T10:14:59.932Z,21.98
2023-04-24T10:16:00.001Z,21.99
2023-04-24T10:16:59.945Z,21.94
2023-04-24T10:18:00.042Z,21.65
2023-04-24T10:18:59.941Z,21.75
2023-04-24T10:19:59.941Z,21.64
2023-04-24T10:20:59.942Z,21.40
2023-04-24T10:21:59.952Z,21.49
2023-04-24T10:22:59.954Z,21.53
2023-04-24T10:23:59.952Z,21.65
2023-04-24T10:24:59.952Z,21.72
2023-04-24T10:25:59.961Z,21.82
2023-04-24T10:26:59.975Z,21.99
2023-04-24T10:27:59.959Z,22.09
2023-04-24T10:28:59.958Z,21.94
2023-04-24T10:29:59.965Z,21.62
2023-04-24T10:30:59.979Z,21.50
2023-04-24T10:31:59.968Z,21.27
2023-04-24T10:33:00.013Z,21.29
2023-04-24T10:33:59.973Z,21.10
2023-04-24T10:34:59.972Z,21.28
2023-04-24T10:35:59.979Z,21.43
2023-04-24T10:36:59.982Z,21.40
2023-04-24T10:37:59.991Z,21.25
2023-04-24T10:38:59.989Z,21.32
2023-04-24T10:39:59.984Z,21.25
2023-04-24T10:40:59.989Z,21.28
2023-04-24T10:41:59.989Z,21.54
2023-04-24T10:43:00.146Z,21.77
2023-04-24T10:43:59.993Z,22.06
2023-04-24T10:44:59.987Z,22.10
2023-04-24T10:45:59.994Z,22.27
2023-04-24T10:47:00.035Z,22.42
2023-04-24T10:48:00.068Z,22.68
2023-04-24T10:48:59.997Z,22.60
2023-04-24T10:50:00.002Z,22.62
2023-04-24T10:51:00.036Z,22.55
2023-04-24T10:52:00.006Z,22.60
2023-04-24T10:53:00.006Z,22.46
2023-04-24T10:54:00.021Z,22.37
2023-04-24T10:55:00.005Z,22.21
2023-04-24T10:56:00.033Z,22.18
2023-04-24T10:57:00.012Z,22.22
2023-04-24T10:58:00.025Z,22.21
2023-04-24T10:59:00.035Z,22.14
2023-04-24T11:00:00.022Z,22.62
2023-04-24T11:01:00.060Z,22.57
2023-04-24T11:02:00.041Z,22.70
2023-04-24T11:03:00.088Z,22.91
2023-04-24T11:04:00.167Z,23.15
2023-04-24T11:05:00.043Z,23.17
2023-04-24T11:06:00.038Z,23.13
2023-04-24T11:07:00.036Z,23.23
2023-04-24T11:08:00.373Z,23.19
2023-04-24T11:09:00.040Z,23.15
2023-04-24T11:10:00.062Z,23.13
2023-04-24T11:11:00.050Z,23.36
2023-04-24T11:12:00.051Z,23.51
2023-04-24T11:13:00.057Z,23.47
2023-04-24T11:14:00.054Z,23.51
2023-04-24T11:15:00.260Z,23.70
2023-04-24T11:16:00.062Z,23.80
2023-04-24T11:17:00.118Z,24.22
2023-04-24T11:18:00.158Z,24.42
2023-04-24T11:19:00.063Z,24.78
2023-04-24T11:20:00.110Z,25.14
2023-04-24T11:21:00.087Z,25.47
2023-04-24T11:22:00.126Z,25.88
2023-04-24T11:23:00.085Z,26.45
2023-04-24T11:24:00.114Z,26.50
2023-04-24T11:25:00.219Z,26.87
2023-04-24T11:26:00.562Z,26.87
2023-04-24T11:27:00.138Z,26.69
2023-04-24T11:28:00.122Z,27.10
2023-04-24T11:30:00.595Z,27.63
2023-04-24T11:31:00.153Z,27.77
2023-04-24T11:32:00.235Z,27.22
2023-04-24T11:33:00.234Z,27.06
2023-04-24T11:34:00.162Z,26.76
2023-04-24T11:35:00.186Z,26.36
2023-04-24T11:36:00.173Z,25.77
2023-04-24T11:37:00.163Z,25.23
2023-04-24T11:39:00.180Z,24.24
2023-04-24T11:40:00.994Z,23.60
2023-04-24T11:41:00.195Z,23.42
2023-04-24T11:42:00.209Z,23.15
2023-04-24T11:43:00.221Z,22.88
2023-04-24T11:44:00.221Z,22.82
2023-04-24T11:45:00.403Z,22.75
2023-04-24T11:46:00.261Z,22.72
2023-04-24T11:47:00.254Z,22.70
2023-04-24T11:48:00.328Z,22.40
2023-04-24T11:49:00.249Z,22.20
2023-04-24T11:50:00.795Z,22.02
2023-04-24T11:51:00.273Z,21.40
2023-04-24T11:52:01.224Z,20.97
2023-04-24T11:53:00.296Z,20.31
2023-04-24T11:54:04.570Z,19.88
2023-04-24T11:55:00.748Z,19.29
2023-04-24T11:56:00.294Z,18.80
2023-04-24T11:57:00.297Z,18.35
2023-04-24T11:58:00.422Z,18.33
2023-04-24T11:59:00.305Z,18.44
2023-04-24T12:00:00.794Z,18.37
2023-04-24T12:01:00.309Z,18.29
2023-04-24T12:02:00.356Z,18.35
2023-04-24T12:03:00.443Z,18.78
2023-04-24T12:04:00.737Z,19.06
2023-04-24T12:05:00.624Z,18.85
2023-04-24T12:06:00.348Z,18.98
2023-04-24T12:07:00.327Z,19.00
2023-04-24T12:08:00.332Z,19.50
2023-04-24T12:09:04.922Z,20.42
2023-04-24T12:10:00.574Z,21.28
2023-04-24T12:11:00.351Z,21.99
2023-04-24T12:12:00.361Z,22.62
2023-04-24T12:13:00.342Z,22.58
2023-04-24T12:14:00.348Z,22.97
2023-04-24T12:15:00.781Z,23.43
2023-04-24T12:16:00.430Z,23.10
2023-04-24T12:17:00.362Z,22.72
2023-04-24T12:18:00.513Z,22.25
2023-04-24T12:19:00.391Z,22.45
2023-04-24T12:20:00.379Z,22.54
2023-04-24T12:21:01.303Z,22.03
2023-04-24T12:22:00.380Z,21.88
2023-04-24T12:23:00.398Z,21.62
2023-04-24T12:24:00.398Z,21.69
2023-04-24T12:25:00.390Z,21.77
2023-04-24T12:26:00.399Z,21.71
2023-04-24T12:27:00.408Z,21.47
2023-04-24T12:28:00.411Z,21.53
2023-04-24T12:29:00.415Z,21.31
2023-04-24T12:30:00.429Z,21.09
2023-04-24T12:31:00.440Z,20.82
2023-04-24T12:32:00.441Z,20.70
2023-04-24T12:33:00.454Z,20.32
2023-04-24T12:34:00.436Z,20.42
2023-04-24T12:35:00.463Z,20.88
2023-04-24T12:36:00.454Z,21.35
2023-04-24T12:37:00.449Z,21.28
2023-04-24T12:38:00.459Z,21.90
2023-04-24T12:39:00.461Z,22.36
2023-04-24T12:40:00.472Z,22.82
2023-04-24T12:41:00.466Z,22.72
2023-04-24T12:42:00.491Z,23.19
2023-04-24T12:43:00.489Z,23.19
2023-04-24T12:44:00.499Z,23.32
2023-04-24T12:45:00.486Z,23.51
2023-04-24T12:46:00.496Z,23.97
2023-04-24T12:47:00.558Z,24.34
2023-04-24T12:48:00.518Z,23.84
2023-04-24T12:49:00.513Z,23.53
2023-04-24T12:50:00.532Z,23.32
2023-04-24T12:51:00.540Z,23.04
2023-04-24T12:52:00.529Z,22.67
2023-04-24T12:53:00.532Z,22.91
2023-04-24T12:54:00.525Z,23.19
2023-04-24T12:55:00.532Z,23.33